Time;durP1;ratioP1;P1;durP2;ratioP2;P2;SDS_P1;SDS_P2;PMS_P1;PMS_P2;Temp;Humidity;BMP_temperature;BMP_pressure;BME280_temperature;BME280_humidity;BME280_pressure;Samples;Min_cycle;Max_cycle;Signal;HPM_P1;HPM_P2
2023/01/22 00:01:54;;;;;;;0.50;0.15;;;;;;;4.15;53.79;100470.31;5030431;28;20037;-72
2023/01/22 00:04:20;;;;;;;1.63;0.10;;;;;;;4.22;51.66;100476.72;5028425;28;20041;-72
2023/01/22 00:06:45;;;;;;;0.93;0.20;;;;;;;4.20;54.35;100451.03;5026091;28;20042;-71
2023/01/22 00:09:11;;;;;;;0.50;0.20;;;;;;;4.13;54.72;100478.16;5029942;28;20552;-73
2023/01/22 00:11:36;;;;;;;0.55;0.10;;;;;;;4.06;54.81;100479.50;5032499;28;20041;-72
2023/01/22 00:14:01;;;;;;;1.30;1.02;;;;;;;4.12;55.09;100496.31;5030152;28;20029;-72
2023/01/22 00:16:27;;;;;;;0.47;0.15;;;;;;;4.28;52.30;100486.59;5029427;28;20036;-71
2023/01/22 00:18:52;;;;;;;0.30;0.10;;;;;;;4.26;52.01;100472.97;5029882;28;20063;-71
2023/01/22 00:21:17;;;;;;;0.40;0.30;;;;;;;4.31;52.57;100471.72;5030005;28;20113;-72
2023/01/22 00:23:43;;;;;;;0.40;0.10;;;;;;;4.29;51.49;100483.09;5029619;28;20465;-72
2023/01/22 00:26:15;;;;;;;0.43;0.10;;;;;;;4.19;51.93;100477.75;5029359;28;20032;-73
2023/01/22 00:28:41;;;;;;;0.30;0.10;;;;;;;4.20;53.89;100471.66;5024622;28;20029;-72
2023/01/22 00:31:07;;;;;;;0.45;0.10;;;;;;;4.20;53.62;100471.66;5029978;28;20060;-72
2023/01/22 00:33:33;;;;;;;0.57;0.20;;;;;;;4.10;53.74;100480.13;5029033;28;20506;-72
2023/01/22 00:36:19;;;;;;;0.55;0.13;;;;;;;4.00;53.63;100503.09;5029746;28;20099;-72
2023/01/22 00:38:45;;;;;;;0.43;0.20;;;;;;;3.86;56.47;100500.59;5029056;28;20092;-72
2023/01/22 00:41:11;;;;;;;0.40;0.10;;;;;;;3.91;55.26;100506.28;5029026;28;20064;-73
2023/01/22 00:43:37;;;;;;;0.28;0.10;;;;;;;4.08;53.63;100506.00;5030769;28;20047;-72
2023/01/22 00:46:04;;;;;;;0.50;0.20;;;;;;;4.12;53.03;100502.28;5029121;28;20017;-72
2023/01/22 00:48:30;;;;;;;0.38;0.10;;;;;;;4.06;53.73;100513.00;5028719;28;20110;-72
2023/01/22 00:50:55;;;;;;;0.93;0.20;;;;;;;3.99;54.17;100501.44;5029432;28;20037;-72
2023/01/22 00:53:21;;;;;;;0.28;0.10;;;;;;;4.00;53.22;100492.78;5029052;28;20112;-72
2023/01/22 00:55:54;;;;;;;0.95;0.10;;;;;;;3.96;53.40;100506.81;5026116;28;20126;-72
2023/01/22 00:58:20;;;;;;;0.82;0.20;;;;;;;4.09;52.39;100505.06;5029531;28;20033;-72
2023/01/22 01:00:46;;;;;;;0.32;0.10;;;;;;;4.09;52.76;100507.66;5021213;28;20061;-73
2023/01/22 01:03:27;;;;;;;0.45;0.15;;;;;;;4.06;53.17;100512.19;5027587;28;20439;-72
2023/01/22 01:05:53;;;;;;;0.60;0.10;;;;;;;4.02;53.91;100513.31;5023409;28;20052;-72
2023/01/22 01:08:19;;;;;;;0.40;0.10;;;;;;;4.05;53.79;100511.34;5029444;28;20029;-72
2023/01/22 01:10:44;;;;;;;0.77;0.20;;;;;;;3.97;53.46;100511.03;5027952;28;20025;-72
2023/01/22 01:13:11;;;;;;;0.30;0.10;;;;;;;3.89;53.96;100515.88;5029014;28;20083;-72
2023/01/22 01:15:36;;;;;;;0.20;0.10;;;;;;;3.91;54.75;100506.28;5030032;28;20451;-72
2023/01/22 01:18:02;;;;;;;0.60;0.10;;;;;;;3.88;54.56;100515.03;5028643;28;20033;-72
2023/01/22 01:20:27;;;;;;;0.40;0.10;;;;;;;3.87;55.31;100512.56;5032591;28;20116;-72
2023/01/22 01:22:53;;;;;;;0.90;0.20;;;;;;;3.81;55.19;100533.56;5033510;28;20029;-72
2023/01/22 01:25:18;;;;;;;0.55;0.10;;;;;;;4.15;53.53;100507.25;5033558;28;20537;-73
2023/01/22 01:27:43;;;;;;;0.40;0.10;;;;;;;4.31;51.94;100507.84;5032681;28;20033;-72
2023/01/22 01:30:09;;;;;;;0.45;0.10;;;;;;;4.28;53.32;100533.03;5033379;28;20078;-73
2023/01/22 01:32:35;;;;;;;0.30;0.10;;;;;;;4.16;53.96;100516.63;5031753;28;20029;-73
2023/01/22 01:35:00;;;;;;;0.88;0.10;;;;;;;4.00;55.73;100529.72;5032193;28;20033;-72
2023/01/22 01:37:25;;;;;;;0.30;0.10;;;;;;;3.88;56.21;100532.25;5032500;28;20068;-73
2023/01/22 01:39:51;;;;;;;0.40;0.10;;;;;;;3.91;55.48;100532.06;5032610;28;20092;-72
2023/01/22 01:42:25;;;;;;;0.32;0.10;;;;;;;3.98;54.65;100530.72;5032536;28;20029;-72
2023/01/22 01:45:16;;;;;;;0.50;0.20;;;;;;;4.02;52.36;100552.81;5029732;28;20030;-72
2023/01/22 01:47:41;;;;;;;0.25;0.10;;;;;;;4.08;53.59;100536.94;5032624;28;20465;-73
2023/01/22 01:50:07;;;;;;;0.43;0.13;;;;;;;4.32;51.07;100530.13;5032747;28;20048;-72
2023/01/22 01:52:32;;;;;;;0.45;0.10;;;;;;;4.41;51.31;100527.88;5027053;28;20092;-72
2023/01/22 01:54:58;;;;;;;0.93;0.10;;;;;;;4.37;51.64;100536.75;5027582;28;20493;-73
2023/01/22 01:57:28;;;;;;;0.50;0.10;;;;;;;4.26;51.64;100546.00;5028898;28;20065;-72
2023/01/22 01:59:55;;;;;;;0.40;0.10;;;;;;;4.30;50.85;100532.00;5031056;28;20033;-73
2023/01/22 02:02:21;;;;;;;1.42;0.10;;;;;;;4.29;51.89;100538.06;5032250;28;20033;-72
2023/01/22 02:04:48;;;;;;;0.28;0.10;;;;;;;4.26;51.37;100551.19;5032376;28;20056;-72
2023/01/22 02:07:13;;;;;;;3.00;0.17;;;;;;;4.24;53.15;100552.22;5032452;28;20029;-73
2023/01/22 02:09:39;;;;;;;0.35;0.10;;;;;;;4.14;54.07;100569.25;5027137;28;20033;-72
2023/01/22 02:12:04;;;;;;;0.57;0.13;;;;;;;3.93;55.94;100568.88;5032083;28;20057;-72
2023/01/22 02:14:33;;;;;;;0.38;0.10;;;;;;;3.77;57.50;100552.78;5031007;28;20029;-72
2023/01/22 02:17:06;;;;;;;1.15;0.20;;;;;;;3.57;59.33;100556.63;5032933;28;20491;-72
2023/01/22 02:19:32;;;;;;;0.50;0.10;;;;;;;3.47;60.01;100564.09;5031922;28;20038;-72
2023/01/22 02:21:57;;;;;;;1.67;0.10;;;;;;;3.42;59.89;100558.41;5032350;28;20094;-72
2023/01/22 02:24:23;;;;;;;0.50;0.20;;;;;;;3.36;60.14;100557.97;5030518;28;20119;-71
2023/01/22 02:26:49;;;;;;;0.35;0.10;;;;;;;3.72;54.61;100554.81;5026440;28;20045;-72
2023/01/22 02:29:14;;;;;;;0.63;0.10;;;;;;;3.96;54.58;100556.63;5031777;28;20041;-71
2023/01/22 02:31:41;;;;;;;0.32;0.10;;;;;;;4.16;54.25;100555.31;5031561;28;20436;-73
2023/01/22 02:34:08;;;;;;;0.30;0.10;;;;;;;4.18;54.08;100550.88;5032189;28;20030;-72
2023/01/22 02:36:35;;;;;;;0.50;0.10;;;;;;;4.15;54.37;100560.56;5031420;28;20086;-73
2023/01/22 02:39:01;;;;;;;0.30;0.10;;;;;;;4.07;54.14;100560.25;5030734;28;20500;-71
2023/01/22 02:41:27;;;;;;;0.65;0.10;;;;;;;3.95;55.82;100570.44;5030504;28;20071;-73
2023/01/22 02:43:52;;;;;;;0.40;0.10;;;;;;;3.90;55.73;100569.06;5026603;28;20044;-72
2023/01/22 02:46:18;;;;;;;1.20;0.15;;;;;;;3.93;54.67;100555.97;5031167;28;20064;-72
2023/01/22 02:48:43;;;;;;;1.25;0.10;;;;;;;4.03;54.84;100562.19;5031332;28;20701;-72
2023/01/22 02:51:09;;;;;;;0.32;0.10;;;;;;;4.06;54.02;100559.41;5031530;28;20041;-72
2023/01/22 02:53:34;;;;;;;0.52;0.10;;;;;;;4.04;54.96;100569.00;5030631;28;20418;-73
2023/01/22 02:56:05;;;;;;;0.20;0.10;;;;;;;4.08;54.70;100573.03;5030597;28;20064;-73
2023/01/22 02:58:30;;;;;;;0.30;0.10;;;;;;;3.98;55.21;100566.81;5030629;28;20485;-73
2023/01/22 03:00:56;;;;;;;0.60;0.10;;;;;;;3.88;56.80;100558.03;5025702;28;20037;-73
2023/01/22 03:03:21;;;;;;;0.57;0.17;;;;;;;3.83;56.07;100555.75;5030566;28;20034;-73
2023/01/22 03:05:51;;;;;;;0.30;0.10;;;;;;;3.76;56.54;100540.81;5031611;28;20432;-73
2023/01/22 03:08:18;;;;;;;0.30;0.10;;;;;;;3.96;55.74;100546.31;5031518;28;20044;-72
2023/01/22 03:10:44;;;;;;;0.60;0.10;;;;;;;3.98;55.62;100561.66;5030226;28;20469;-72
2023/01/22 03:21:22;;;;;;;0.30;0.10;;;;;;;4.34;53.52;100542.94;5030717;28;20041;-72
2023/01/22 03:23:52;;;;;;;0.17;0.10;;;;;;;4.29;53.44;100538.06;5031111;28;20030;-72
2023/01/22 03:26:20;;;;;;;0.20;0.10;;;;;;;4.24;53.61;100557.41;5026914;28;20030;-71
2023/01/22 03:28:46;;;;;;;0.55;0.10;;;;;;;4.14;55.30;100526.22;5027747;28;20381;-72
2023/01/22 03:31:13;;;;;;;0.20;0.03;;;;;;;3.99;56.81;100529.81;5030836;28;20029;-71
2023/01/22 03:33:39;;;;;;;0.20;0.10;;;;;;;4.00;54.74;100547.75;5030284;28;20473;-72
2023/01/22 03:36:07;;;;;;;0.20;0.10;;;;;;;4.37;51.64;100534.16;5026106;28;20036;-73
2023/01/22 03:38:33;;;;;;;0.20;0.00;;;;;;;4.47;51.53;100523.13;5030190;28;20031;-73
2023/01/22 03:41:07;;;;;;;3.50;0.10;;;;;;;4.41;52.24;100523.53;5029677;28;20026;-72
2023/01/22 03:43:33;;;;;;;0.20;0.10;;;;;;;4.52;52.89;100523.63;5030067;28;20124;-72
2023/01/22 03:46:09;;;;;;;0.10;0.03;;;;;;;4.44;53.04;100532.81;5030773;28;20034;-72
2023/01/22 03:48:34;;;;;;;0.20;0.10;;;;;;;4.45;51.71;100540.47;5030216;28;20389;-72
2023/01/22 03:51:05;;;;;;;0.10;0.05;;;;;;;4.52;51.70;100523.63;5031482;28;20038;-73
2023/01/22 03:53:30;;;;;;;0.10;0.10;;;;;;;4.64;51.48;100540.03;5028038;28;20044;-72
2023/01/22 03:55:57;;;;;;;0.82;0.10;;;;;;;4.57;52.13;100531.06;5030723;28;20013;-73
2023/01/22 03:58:23;;;;;;;0.20;0.00;;;;;;;4.64;51.61;100534.88;5029580;28;20037;-72
2023/01/22 04:00:48;;;;;;;0.60;0.10;;;;;;;4.65;51.71;100536.53;5030144;28;20040;-72
2023/01/22 04:03:13;;;;;;;0.40;0.10;;;;;;;4.59;51.75;100547.28;5030218;28;20501;-73
2023/01/22 04:05:39;;;;;;;0.10;0.00;;;;;;;4.52;53.46;100548.63;5029298;28;20041;-72
2023/01/22 04:08:04;;;;;;;0.20;0.10;;;;;;;4.52;52.11;100551.19;5027366;28;20099;-72
2023/01/22 04:10:30;;;;;;;0.20;0.10;;;;;;;4.51;52.79;100539.22;5027576;28;20044;-71
2023/01/22 04:12:55;;;;;;;0.57;0.10;;;;;;;4.49;52.58;100552.22;5029706;28;20032;-73
2023/01/22 04:15:20;;;;;;;0.28;0.10;;;;;;;4.46;52.70;100533.53;5029048;28;20043;-72
2023/01/22 04:17:46;;;;;;;0.20;0.10;;;;;;;4.31;53.69;100536.22;5029689;28;20029;-73
2023/01/22 04:20:11;;;;;;;1.02;0.05;;;;;;;4.34;53.38;100541.19;5029795;28;20034;-73
2023/01/22 04:22:37;;;;;;;0.40;0.10;;;;;;;4.29;53.13;100550.97;5029483;28;20095;-72
2023/01/22 04:25:02;;;;;;;0.65;0.15;;;;;;;4.38;53.10;100565.00;5029338;28;20030;-72
2023/01/22 04:27:28;;;;;;;0.50;0.10;;;;;;;4.47;53.60;100545.50;5028413;28;20069;-73
2023/01/22 04:29:53;;;;;;;0.30;0.20;;;;;;;4.55;51.91;100566.47;5029980;28;20107;-70
2023/01/22 04:32:19;;;;;;;0.13;0.00;;;;;;;4.73;52.26;100560.03;5029726;28;20040;-71
2023/01/22 04:34:46;;;;;;;0.28;0.00;;;;;;;4.64;52.36;100560.69;5029247;28;20030;-71
2023/01/22 04:37:11;;;;;;;0.47;0.05;;;;;;;4.59;52.01;100588.56;5029327;28;20112;-72
2023/01/22 04:39:37;;;;;;;0.30;0.10;;;;;;;4.51;53.33;100563.28;5029158;28;20040;-71
2023/01/22 04:42:02;;;;;;;0.20;0.03;;;;;;;4.57;52.37;100585.25;5028023;28;20068;-71
2023/01/22 04:44:28;;;;;;;1.33;0.03;;;;;;;4.61;53.08;100566.88;5029073;28;20037;-72
2023/01/22 04:46:53;;;;;;;0.22;0.00;;;;;;;4.60;52.53;100579.91;5029388;28;20034;-71
2023/01/22 04:49:18;;;;;;;0.68;0.10;;;;;;;4.52;54.09;100582.16;5029485;28;20029;-71
2023/01/22 04:51:44;;;;;;;0.20;0.10;;;;;;;4.57;53.20;100580.09;5028384;28;20036;-71
2023/01/22 04:54:09;;;;;;;0.20;0.10;;;;;;;4.58;53.08;100599.81;5029453;28;20125;-71
2023/01/22 04:56:35;;;;;;;0.30;0.10;;;;;;;4.58;53.40;100577.41;5028011;28;20040;-71
2023/01/22 04:59:00;;;;;;;0.10;0.03;;;;;;;4.58;53.45;100581.75;5023911;28;20431;-72
2023/01/22 05:01:25;;;;;;;0.77;0.10;;;;;;;4.58;52.88;100586.91;5028598;28;20033;-72
2023/01/22 05:03:51;;;;;;;0.80;0.10;;;;;;;4.62;52.51;100585.78;5028621;28;20128;-72
2023/01/22 05:06:16;;;;;;;0.65;0.00;;;;;;;4.62;52.21;100584.03;5028941;28;20136;-70
2023/01/22 05:08:41;;;;;;;0.38;0.00;;;;;;;4.65;52.26;100593.31;5028676;28;20091;-71
2023/01/22 05:11:07;;;;;;;0.10;0.00;;;;;;;4.61;53.72;100603.00;5027758;28;20128;-72
2023/01/22 05:13:32;;;;;;;0.30;0.05;;;;;;;4.47;54.96;100604.84;5028565;28;20040;-71
2023/01/22 05:15:58;;;;;;;0.43;0.10;;;;;;;4.21;57.03;100610.00;5026940;28;20060;-71
2023/01/22 05:18:23;;;;;;;0.38;0.13;;;;;;;3.90;58.65;100615.47;5025599;28;20117;-72
2023/01/22 05:20:49;;;;;;;0.50;0.20;;;;;;;3.66;60.12;100592.94;5029266;28;20037;-71
2023/01/22 05:23:14;;;;;;;0.50;0.20;;;;;;;3.58;58.98;100604.63;5029028;28;20037;-72
2023/01/22 05:25:46;;;;;;;0.40;0.10;;;;;;;3.81;57.91;100600.59;5027380;28;20037;-72
2023/01/22 05:28:11;;;;;;;1.75;0.20;;;;;;;4.02;57.32;100622.41;5028484;28;20068;-72
2023/01/22 05:30:37;;;;;;;0.47;0.13;;;;;;;3.88;58.97;100632.78;5028603;28;20143;-72
2023/01/22 05:33:02;;;;;;;0.43;0.10;;;;;;;3.70;59.57;100603.03;5028333;28;20398;-72
2023/01/22 05:35:28;;;;;;;0.30;0.10;;;;;;;3.99;56.84;100613.13;5028161;28;20045;-72
2023/01/22 05:37:54;;;;;;;0.10;0.00;;;;;;;4.15;56.73;100604.41;5029059;28;20029;-72
2023/01/22 05:40:20;;;;;;;0.40;0.10;;;;;;;4.34;55.13;100615.97;5028060;28;20079;-72
2023/01/22 05:42:45;;;;;;;0.50;0.00;;;;;;;4.40;55.18;100617.34;5027879;28;20037;-72
2023/01/22 05:45:11;;;;;;;0.20;0.00;;;;;;;4.37;55.73;100624.44;5028716;28;20013;-71
2023/01/22 05:47:36;;;;;;;0.05;0.00;;;;;;;4.31;54.51;100629.06;5027984;28;20037;-73
2023/01/22 05:50:02;;;;;;;0.60;0.10;;;;;;;4.19;56.96;100637.63;5026231;28;20403;-72
2023/01/22 05:52:27;;;;;;;5.97;0.20;;;;;;;3.97;58.30;100632.19;5027045;28;20045;-72
2023/01/22 05:54:52;;;;;;;0.40;0.10;;;;;;;3.71;59.54;100631.28;5028738;28;20025;-71
2023/01/22 05:57:18;;;;;;;0.60;0.10;;;;;;;3.89;58.44;100621.56;5028870;28;20067;-72
2023/01/22 05:59:43;;;;;;;0.93;0.10;;;;;;;4.06;57.13;100636.78;5028189;28;20021;-71
2023/01/22 06:02:09;;;;;;;0.55;0.05;;;;;;;4.06;57.41;100641.09;5029278;28;20132;-71
2023/01/22 06:04:34;;;;;;;0.52;0.17;;;;;;;3.94;58.76;100647.88;5032511;28;20615;-71
2023/01/22 06:07:00;;;;;;;0.80;0.30;;;;;;;3.68;60.60;100649.53;5029436;28;20032;-71
2023/01/22 06:09:25;;;;;;;0.80;0.20;;;;;;;3.38;62.23;100653.97;5031353;28;20347;-71
2023/01/22 06:11:50;;;;;;;1.63;0.20;;;;;;;3.17;63.40;100656.13;5032657;28;20033;-71
2023/01/22 06:14:16;;;;;;;2.45;0.20;;;;;;;2.99;65.03;100655.47;5031790;28;20044;-71
2023/01/22 06:16:41;;;;;;;0.47;0.20;;;;;;;2.82;65.22;100661.66;5031504;28;20033;-71
2023/01/22 06:19:07;;;;;;;0.75;0.20;;;;;;;2.78;65.52;100654.19;5029834;28;20079;-72
2023/01/22 06:21:33;;;;;;;1.48;0.20;;;;;;;2.69;66.70;100657.31;5030180;28;20038;-72
2023/01/22 06:23:58;;;;;;;0.60;0.30;;;;;;;2.62;67.27;100661.97;5030351;28;20057;-72
2023/01/22 06:26:23;;;;;;;0.80;0.20;;;;;;;2.59;68.04;100669.88;5027684;28;20041;-71
2023/01/22 06:28:49;;;;;;;0.52;0.22;;;;;;;2.49;68.86;100681.59;5031978;28;20044;-72
2023/01/22 06:31:14;;;;;;;1.02;0.30;;;;;;;2.39;68.63;100680.47;5033473;28;20049;-73
2023/01/22 06:33:40;;;;;;;1.08;0.20;;;;;;;2.39;68.34;100667.59;5031526;28;20088;-71
2023/01/22 06:36:06;;;;;;;0.73;0.22;;;;;;;2.40;69.15;100648.69;5031468;28;20075;-72
2023/01/22 06:38:31;;;;;;;1.30;0.20;;;;;;;2.75;64.02;100680.09;5030986;28;20428;-72
2023/01/22 06:40:59;;;;;;;0.60;0.20;;;;;;;3.08;63.88;100669.56;5030334;28;20066;-72
2023/01/22 06:43:26;;;;;;;4.22;1.60;;;;;;;3.06;64.42;100663.66;5030084;28;20034;-72
2023/01/22 06:45:52;;;;;;;2.35;0.73;;;;;;;3.06;64.54;100679.94;5026958;28;20026;-72
2023/01/22 06:48:18;;;;;;;1.33;0.50;;;;;;;3.03;65.52;100681.88;5030041;28;20029;-72
2023/01/22 06:50:44;;;;;;;1.65;0.40;;;;;;;2.97;66.30;100676.16;5030230;28;20064;-71
2023/01/22 06:53:09;;;;;;;3.00;0.80;;;;;;;2.85;66.75;100679.47;5029030;28;20033;-72
2023/01/22 06:55:36;;;;;;;2.63;0.80;;;;;;;2.74;67.26;100674.13;5030544;28;20038;-71
2023/01/22 06:58:02;;;;;;;2.58;0.75;;;;;;;2.69;67.56;100678.72;5031730;28;20069;-72
2023/01/22 07:00:27;;;;;;;4.78;0.70;;;;;;;2.61;68.88;100683.47;5030207;28;20519;-71
2023/01/22 07:02:53;;;;;;;1.77;0.43;;;;;;;2.65;68.63;100695.25;5028797;28;20183;-72
2023/01/22 07:05:19;;;;;;;6.53;3.38;;;;;;;2.61;68.62;100706.63;5028383;28;20091;-72
2023/01/22 07:07:45;;;;;;;5.32;2.05;;;;;;;2.60;68.79;100703.22;5029889;28;20500;-71
2023/01/22 07:10:11;;;;;;;2.95;1.17;;;;;;;2.57;69.45;100705.97;5029943;28;20466;-71
2023/01/22 07:12:36;;;;;;;3.25;1.17;;;;;;;2.51;70.04;100711.47;5030097;28;20124;-72
2023/01/22 07:15:02;;;;;;;4.85;1.83;;;;;;;2.47;70.49;100716.88;5028131;28;20052;-72
2023/01/22 07:17:28;;;;;;;4.82;2.53;;;;;;;2.39;70.68;100714.72;5028016;28;20087;-72
2023/01/22 07:19:54;;;;;;;3.97;1.60;;;;;;;2.42;70.81;100726.56;5029819;28;20151;-72
2023/01/22 07:22:19;;;;;;;4.82;2.80;;;;;;;2.41;71.78;100719.78;5030626;28;20041;-71
2023/01/22 07:24:45;;;;;;;3.25;1.35;;;;;;;2.42;71.67;100718.88;5029874;28;20059;-72
2023/01/22 07:27:11;;;;;;;1.80;0.60;;;;;;;2.51;71.54;100731.22;5028674;28;20136;-71
2023/01/22 07:29:36;;;;;;;2.55;0.88;;;;;;;2.59;71.14;100726.47;5029825;28;20550;-72
2023/01/22 07:32:02;;;;;;;3.28;1.42;;;;;;;2.66;71.03;100744.03;5027653;28;20064;-71
2023/01/22 07:34:27;;;;;;;0.77;0.20;;;;;;;2.82;68.68;100728.56;5029216;28;20029;-72
2023/01/22 07:36:52;;;;;;;0.38;0.10;;;;;;;3.42;65.51;100730.97;5029770;28;20079;-72
2023/01/22 07:39:18;;;;;;;1.05;0.20;;;;;;;3.67;65.09;100740.63;5030059;28;20045;-72
2023/01/22 07:41:43;;;;;;;0.75;0.17;;;;;;;3.71;65.08;100749.00;5028357;28;20041;-71
2023/01/22 07:44:10;;;;;;;1.67;0.40;;;;;;;3.64;65.53;100748.56;5030279;28;20056;-73
2023/01/22 07:46:36;;;;;;;0.73;0.30;;;;;;;3.56;66.31;100750.75;5029017;28;20029;-73
2023/01/22 07:49:01;;;;;;;1.27;0.45;;;;;;;3.50;67.18;100754.53;5027189;28;20029;-71
2023/01/22 07:51:27;;;;;;;1.27;0.50;;;;;;;3.54;66.45;100757.75;5025653;28;20056;-71
2023/01/22 07:53:52;;;;;;;1.08;0.40;;;;;;;3.53;66.95;100767.22;5027864;28;20060;-72
2023/01/22 07:56:18;;;;;;;1.23;0.38;;;;;;;3.51;68.03;100770.81;5029488;28;20041;-72
2023/01/22 07:58:44;;;;;;;2.90;0.80;;;;;;;3.45;69.28;100763.44;5029366;28;20025;-72
2023/01/22 08:01:10;;;;;;;2.20;1.02;;;;;;;3.42;68.56;100774.75;5029592;28;20029;-72
2023/01/22 08:03:36;;;;;;;1.52;0.50;;;;;;;3.43;68.99;100776.41;5028879;28;20445;-71
2023/01/22 08:06:10;;;;;;;1.00;0.60;;;;;;;3.47;69.64;100782.22;5027495;28;20038;-71
2023/01/22 08:08:36;;;;;;;0.70;0.25;;;;;;;3.48;69.20;100779.56;5025422;28;20065;-71
2023/01/22 08:11:03;;;;;;;2.35;0.55;;;;;;;3.55;69.50;100786.00;5028946;28;20040;-71
2023/01/22 08:13:29;;;;;;;1.83;0.40;;;;;;;3.54;69.92;100789.50;5028852;28;20037;-72
2023/01/22 08:15:55;;;;;;;2.97;0.70;;;;;;;3.51;69.79;100789.69;5022960;28;20029;-72
2023/01/22 08:18:21;;;;;;;3.22;1.00;;;;;;;3.49;71.07;100804.41;5029141;28;20544;-71
2023/01/22 08:20:47;;;;;;;2.88;1.10;;;;;;;3.49;71.17;100808.72;5027484;28;20037;-71
2023/01/22 08:23:13;;;;;;;3.25;1.00;;;;;;;3.47;71.25;100806.22;5029272;28;20033;-71
2023/01/22 08:25:39;;;;;;;2.65;1.30;;;;;;;3.48;71.20;100815.63;5028646;28;20480;-72
2023/01/22 08:28:05;;;;;;;4.45;1.83;;;;;;;3.53;71.80;100813.59;5033394;28;20021;-72
2023/01/22 08:30:32;;;;;;;3.40;1.10;;;;;;;3.57;71.34;100822.81;5029107;28;20127;-72
2023/01/22 08:32:58;;;;;;;3.13;0.98;;;;;;;3.62;70.52;100813.06;5025207;28;21920;-72
2023/01/22 08:35:23;;;;;;;3.58;1.90;;;;;;;3.70;71.10;100815.19;5029303;28;20041;-72
2023/01/22 08:37:49;;;;;;;4.10;1.50;;;;;;;3.73;71.08;100829.63;5029255;28;20025;-72
2023/01/22 08:40:15;;;;;;;6.78;2.30;;;;;;;3.79;70.36;100826.66;5025704;28;20493;-72
2023/01/22 08:42:40;;;;;;;2.90;1.55;;;;;;;3.88;71.23;100820.97;5028894;28;20485;-72
2023/01/22 08:45:07;;;;;;;7.68;5.97;;;;;;;3.91;71.89;100826.75;5027236;28;20108;-72
2023/01/22 08:47:32;;;;;;;5.25;4.10;;;;;;;3.91;70.99;100833.66;5028700;28;20071;-72
2023/01/22 08:49:58;;;;;;;2.00;1.25;;;;;;;3.98;69.45;100830.63;5028263;28;20057;-73
2023/01/22 08:52:23;;;;;;;4.13;1.48;;;;;;;4.00;69.31;100838.25;5027421;28;20520;-72
2023/01/22 08:54:49;;;;;;;2.70;1.35;;;;;;;4.10;70.97;100829.06;5027993;28;20132;-72
2023/01/22 08:57:14;;;;;;;4.00;1.85;;;;;;;4.18;70.87;100837.16;5027581;28;20033;-72
2023/01/22 08:59:39;;;;;;;1.70;1.00;;;;;;;4.18;69.50;100844.88;5028588;28;20034;-72
2023/01/22 09:02:05;;;;;;;4.22;1.25;;;;;;;4.19;68.41;100840.56;5028758;28;20033;-73
2023/01/22 09:04:30;;;;;;;1.77;0.75;;;;;;;4.21;68.78;100846.44;5028508;28;20041;-72
2023/01/22 09:06:56;;;;;;;0.85;0.30;;;;;;;4.26;67.99;100846.97;5028684;28;20436;-72
2023/01/22 09:09:22;;;;;;;2.42;0.52;;;;;;;4.36;67.42;100850.63;5027560;28;20497;-72
2023/01/22 09:11:47;;;;;;;1.10;0.50;;;;;;;4.43;66.31;100851.09;5026966;28;20028;-72
2023/01/22 09:14:13;;;;;;;1.67;0.75;;;;;;;4.47;67.01;100855.97;5027531;28;20366;-72
2023/01/22 09:16:38;;;;;;;0.80;0.40;;;;;;;4.66;64.63;100863.38;5027474;28;20108;-72
2023/01/22 09:19:05;;;;;;;0.85;0.40;;;;;;;4.77;65.07;100866.09;5026538;28;20038;-72
2023/01/22 09:21:32;;;;;;;2.65;0.85;;;;;;;4.74;65.70;100868.84;5026655;28;20029;-73
2023/01/22 09:23:58;;;;;;;2.00;0.85;;;;;;;4.66;67.31;100879.69;5028709;28;20025;-72
2023/01/22 09:26:24;;;;;;;2.13;1.05;;;;;;;4.54;66.81;100885.63;5026718;28;20040;-72
2023/01/22 09:28:49;;;;;;;2.28;1.02;;;;;;;4.54;68.34;100885.63;5028883;28;20033;-71
2023/01/22 09:31:16;;;;;;;2.63;1.33;;;;;;;4.51;68.63;100879.81;5026248;28;20030;-72
2023/01/22 09:33:41;;;;;;;2.65;1.63;;;;;;;4.51;68.33;100884.97;5028199;28;20033;-71
2023/01/22 09:36:12;;;;;;;2.40;1.05;;;;;;;4.49;67.80;100889.41;5031614;28;20029;-71
2023/01/22 09:38:38;;;;;;;3.10;1.70;;;;;;;4.53;69.13;100898.63;5031106;28;20069;-69
2023/01/22 09:41:12;;;;;;;2.75;1.30;;;;;;;4.48;69.31;100896.31;5031134;28;20041;-69
2023/01/22 09:44:02;;;;;;;4.93;1.65;;;;;;;4.46;69.08;100899.91;5030992;28;20108;-72
2023/01/22 09:46:33;;;;;;;2.38;1.08;;;;;;;4.54;66.98;100901.09;5030782;28;20022;-72
2023/01/22 09:49:11;;;;;;;2.40;0.90;;;;;;;4.58;65.88;100896.59;5030523;28;20057;-72
2023/01/22 09:51:36;;;;;;;2.00;0.80;;;;;;;4.61;67.13;100911.88;5029696;28;20353;-72
2023/01/22 09:54:06;;;;;;;2.13;0.30;;;;;;;4.80;64.10;100912.34;5031260;28;20041;-71
2023/01/22 09:56:41;;;;;;;1.00;0.40;;;;;;;5.09;59.65;100913.09;5030713;28;20063;-72
2023/01/22 09:59:13;;;;;;;3.58;0.80;;;;;;;5.11;62.30;100905.25;5027622;28;20045;-72
2023/01/22 10:01:40;;;;;;;3.50;2.20;;;;;;;4.87;64.40;100912.81;5030741;28;20512;-72
2023/01/22 10:04:26;;;;;;;5.55;2.60;;;;;;;4.65;66.06;100910.75;5030211;28;20535;-71
2023/01/22 10:06:54;;;;;;;4.90;2.15;;;;;;;4.56;66.72;100917.31;5029323;28;20164;-72
2023/01/22 10:09:20;;;;;;;6.32;2.38;;;;;;;4.54;67.46;100928.66;5031926;28;20041;-71
2023/01/22 10:11:51;;;;;;;8.85;3.47;;;;;;;4.51;68.40;100934.00;5031679;28;20033;-71
2023/01/22 10:14:20;;;;;;;8.27;4.28;;;;;;;4.51;69.13;100934.84;5034451;28;20124;-72
2023/01/22 10:16:46;;;;;;;5.78;4.10;;;;;;;4.49;69.82;100946.19;5031356;28;20465;-71
2023/01/22 10:19:28;;;;;;;5.18;2.92;;;;;;;4.47;66.73;100948.84;5029592;28;20032;-72
2023/01/22 10:22:03;;;;;;;5.90;3.33;;;;;;;4.53;69.02;100956.22;5025233;28;20042;-72
2023/01/22 10:24:29;;;;;;;5.55;3.00;;;;;;;4.59;69.41;100949.84;5031001;28;20033;-72
2023/01/22 10:26:57;;;;;;;4.28;2.67;;;;;;;4.59;70.27;100939.53;5034087;28;20029;-71
2023/01/22 10:29:29;;;;;;;4.13;2.10;;;;;;;4.57;68.30;100946.53;5030326;28;20107;-72
2023/01/22 10:31:59;;;;;;;4.10;2.53;;;;;;;4.61;69.46;100940.25;5031213;28;20425;-71
2023/01/22 10:34:31;;;;;;;5.75;2.17;;;;;;;4.60;68.44;100952.34;5029994;28;20045;-70
2023/01/22 10:37:02;;;;;;;6.93;3.00;;;;;;;4.58;68.66;100943.03;5030606;28;20083;-70
2023/01/22 10:39:37;;;;;;;5.47;3.10;;;;;;;4.56;68.00;100944.88;5029592;28;20037;-71
2023/01/22 10:42:03;;;;;;;8.07;3.72;;;;;;;4.59;68.01;100936.94;5031294;28;20026;-70
2023/01/22 10:44:29;;;;;;;5.65;2.63;;;;;;;4.64;68.60;100947.81;5030452;28;20504;-70
2023/01/22 10:47:07;;;;;;;11.25;3.58;;;;;;;4.69;69.90;100950.13;5031485;28;20108;-71
2023/01/22 10:49:32;;;;;;;5.70;2.95;;;;;;;4.83;68.08;100948.31;5028741;28;20181;-70
2023/01/22 10:52:03;;;;;;;4.75;2.70;;;;;;;4.91;67.26;100940.91;5031158;28;20469;-71
2023/01/22 10:54:33;;;;;;;8.38;2.80;;;;;;;4.81;68.40;100949.34;5026081;28;20045;-70
2023/01/22 10:57:18;;;;;;;3.92;2.00;;;;;;;4.65;68.38;100947.72;5026015;28;20030;-70
2023/01/22 11:00:14;;;;;;;4.93;2.00;;;;;;;4.54;68.51;100952.72;5028477;28;20469;-70
2023/01/22 11:02:42;;;;;;;8.52;3.47;;;;;;;4.49;67.90;100944.41;5029180;28;20033;-70
2023/01/22 11:05:21;;;;;;;4.43;1.75;;;;;;;4.65;63.71;100946.91;5029768;28;20432;-70
2023/01/22 11:07:52;;;;;;;3.08;1.20;;;;;;;4.77;62.67;100953.84;5026974;28;20077;-70
2023/01/22 11:10:44;;;;;;;1.75;1.10;;;;;;;4.71;63.17;100943.94;5031056;28;20044;-70
2023/01/22 11:13:15;;;;;;;3.15;1.05;;;;;;;4.80;62.57;100945.91;5025035;28;20033;-69
2023/01/22 11:15:52;;;;;;;2.95;0.50;;;;;;;4.99;59.49;100943.84;5028593;28;20045;-72
2023/01/22 11:18:56;;;;;;;1.95;0.50;;;;;;;5.02;58.84;100947.16;5029626;28;20496;-71
2023/01/22 11:21:31;;;;;;;2.63;0.68;;;;;;;4.94;61.31;100950.22;5025125;28;20044;-70
2023/01/22 11:24:02;;;;;;;0.88;0.28;;;;;;;4.91;60.58;100945.25;5028638;28;20026;-69
2023/01/22 11:27:07;;;;;;;0.80;0.30;;;;;;;4.97;58.54;100955.19;5028325;28;20485;-70
2023/01/22 11:29:57;;;;;;;0.88;0.20;;;;;;;4.99;58.90;100943.84;5024839;28;20140;-70
2023/01/22 11:32:47;;;;;;;0.70;0.40;;;;;;;4.94;59.30;100956.22;5022915;28;20076;-69
2023/01/22 11:35:15;;;;;;;0.60;0.20;;;;;;;4.95;59.20;100944.13;5028930;28;20065;-70
2023/01/22 11:37:40;;;;;;;1.50;0.40;;;;;;;4.92;59.89;100946.91;5029341;28;20053;-69
2023/01/22 11:40:27;;;;;;;0.98;0.30;;;;;;;4.86;58.84;100942.97;5033346;28;20033;-69
2023/01/22 11:43:24;;;;;;;1.08;0.30;;;;;;;4.83;59.17;100935.41;5026880;28;20075;-70
2023/01/22 11:46:13;;;;;;;1.58;0.30;;;;;;;4.89;59.65;100941.94;5026966;28;20403;-69